AGB weather

Augsburg Airport
Augsburg, Bavaria, Germany

Public forecast

Using degrees Celsius for public forecast. Weather courtesy of forecast.io.

METAR (pilot weather report)

Retrieved 2019/05/23 02:20 UTC (10 minutes ago):

EDMA 230220Z AUTO 09002KT 0250 R25/0375U // VV001 04/04 Q1020

TAF (pilot weather forecast)

Forecast is more than 12 hours old.

Retrieved 2009/12/02 06:00 UTC (9 years ago):

TAF COR EDMA 020600Z 0206/0220 VRB03KT 3000 BR SCT004 PROB40 TEMPO 0206/0208 0600 FG VV002 BECMG 0208/0210 9999